Cable Innovator — MVEP4 — position and weather

sailwx.info

Track history (hours):
 
Tides and Currents Weather Stations Pressure Air Temp Water Temp Dewpoint Dewpoint Depression Visibility Wind Speed Wind Dir Waves Ship Positions

Cable Innovator

Last reported at 2016-Dec-06 03:04 UTC. Time now 2016-Dec-06 12:13 UTC.
Position N 48°25' W 123°23'.

Length 145.5 m; beam 24 m; draft 8.3 m.

Type: Other ship. MMSI: 233933000.

Date/timePositionNaut miles runAvg speedWind from/ knotsBaromVisibWave heightAir tempDewpointWater temp
2016-Dec-06 03:04N 48°25' W 123°23'0 0.0
2016-Dec-06 02:28N 48°25' W 123°23'0 0.0
2016-Dec-06 01:04N 48°25' W 123°23'0 0.0
2016-Dec-06 00:28N 48°25' W 123°23'0 0.0
2016-Dec-05 23:31N 48°25' W 123°23'0 0.0
2016-Dec-05 22:28N 48°25' W 123°23'0 0.0
2016-Dec-05 21:10N 48°25' W 123°23'0 0.0
2016-Dec-05 17:16N 48°25' W 123°23'0 0.0
2016-Dec-05 14:22N 48°25' W 123°23'0 0.0
2016-Dec-05 13:10N 48°25' W 123°23'0 0.0
2016-Dec-05 12:22N 48°25' W 123°23'0 0.0
2016-Dec-05 11:28N 48°25' W 123°23'0 0.0
2016-Dec-05 10:28N 48°25' W 123°23'0 0.0
2016-Dec-05 07:31N 48°25' W 123°23'0 0.0
2016-Dec-04 02:27N 48°25' W 123°23'0 0.0
2016-Dec-04 01:30N 48°25' W 123°23'0 0.0
2016-Dec-03 07:21N 48°25' W 123°23'0 0.0
2016-Dec-03 06:33N 48°25' W 123°23'0 0.0
2016-Dec-03 05:09N 48°25' W 123°23'0 0.0
2016-Dec-02 23:24N 48°25' W 123°23'0 0.0
2016-Dec-02 22:33N 48°25' W 123°23'0 0.0
2016-Dec-02 21:15N 48°25' W 123°23'0 0.0
2016-Dec-02 19:14N 48°25' W 123°23'1 0.7
2016-Dec-02 18:33N 48°25' W 123°24'7 6.9
2016-Dec-02 17:33N 48°18' W 123°20'2 2.1
2016-Dec-02 16:33N 48°19' W 123°17'0 0.0
2016-Dec-02 13:12N 48°18' W 123°17'0 0.0
2016-Dec-02 12:29N 48°18' W 123°17'0 0.0
2016-Dec-02 11:32N 48°18' W 123°17'0 0.0
2016-Dec-02 10:33N 48°18' W 123°17'0 0.0
2016-Dec-02 09:33N 48°18' W 123°17'0 0.0
2016-Dec-02 08:33N 48°18' W 123°17'0 0.0
2016-Dec-02 07:33N 48°18' W 123°17'0 0.0
2016-Dec-02 06:33N 48°18' W 123°17'0 0.0
2016-Dec-02 05:33N 48°18' W 123°17'0 0.0
2016-Dec-02 04:33N 48°18' W 123°17'0 0.0
2016-Dec-02 03:33N 48°18' W 123°17'0 0.1
2016-Dec-02 02:33N 48°18' W 123°17'0 0.0
2016-Dec-02 01:33N 48°18' W 123°17'0 0.0
2016-Dec-02 00:27N 48°18' W 123°17'0 0.0
2016-Dec-01 23:33N 48°18' W 123°17'0 0.0
2016-Dec-01 22:33N 48°18' W 123°17'0 0.0
2016-Dec-01 21:33N 48°18' W 123°17'0 0.0
2016-Dec-01 20:33N 48°18' W 123°17'0 0.0
2016-Dec-01 19:32N 48°18' W 123°17'0 0.0
2016-Dec-01 18:32N 48°18' W 123°17'7 6.8
2016-Dec-01 17:33N 48°23' W 123°25'2 0.4
2016-Dec-01 11:04N 48°25' W 123°23'0 0.0
2016-Dec-01 10:28N 48°25' W 123°23'0 0.0
2016-Dec-01 09:16N 48°25' W 123°23'0 0.0
2016-Dec-01 07:16N 48°25' W 123°23'0 0.0
2016-Dec-01 06:28N 48°25' W 123°23'0 0.0
2016-Dec-01 05:28N 48°25' W 123°23'0 0.0
2016-Dec-01 04:16N 48°25' W 123°23'0 0.0
2016-Dec-01 03:22N 48°25' W 123°23'0 0.0
2016-Dec-01 02:28N 48°25' W 123°23'0 0.0
2016-Dec-01 01:28N 48°25' W 123°23'0 0.0
2016-Dec-01 00:22N 48°25' W 123°23'0 0.0
2016-Nov-30 23:28N 48°25' W 123°23'0 0.0
2016-Nov-30 22:28N 48°25' W 123°23'0 0.0
2016-Nov-30 21:22N 48°25' W 123°23'0 0.0
2016-Nov-30 17:21N 48°25' W 123°23'0 0.0
2016-Nov-30 14:30N 48°25' W 123°23'0 0.0
2016-Nov-30 13:24N 48°25' W 123°23'0 0.0
2016-Nov-30 12:24N 48°25' W 123°23'0 0.0
2016-Nov-30 11:27N 48°25' W 123°23'0 0.0
2016-Nov-30 10:18N 48°25' W 123°23'0 0.0
2016-Nov-30 05:21N 48°25' W 123°23'0 0.0
2016-Nov-30 04:24N 48°25' W 123°23'0 0.0
2016-Nov-30 03:24N 48°25' W 123°23'0 0.0
2016-Nov-30 02:27N 48°25' W 123°23'0 0.0
2016-Nov-30 01:18N 48°25' W 123°23'0 0.0
2016-Nov-30 00:33N 48°25' W 123°23'0 0.0
2016-Nov-29 23:33N 48°25' W 123°23'0 0.0
2016-Nov-29 22:30N 48°25' W 123°23'0 0.0
2016-Nov-29 21:33N 48°25' W 123°23'0 0.0
2016-Nov-29 20:33N 48°25' W 123°23'0 0.0
2016-Nov-29 19:33N 48°25' W 123°23'0 0.0
2016-Nov-29 18:33N 48°25' W 123°23'0 0.0
2016-Nov-29 17:30N 48°25' W 123°23'0 0.0
2016-Nov-29 16:30N 48°25' W 123°23'0 0.0
2016-Nov-29 15:33N 48°25' W 123°23'0 0.0
2016-Nov-29 14:33N 48°25' W 123°23'0 0.0
2016-Nov-29 13:15N 48°25' W 123°23'0 0.0
2016-Nov-29 12:33N 48°25' W 123°23'0 0.0
2016-Nov-29 11:27N 48°25' W 123°23'0 0.0
2016-Nov-29 10:27N 48°25' W 123°23'0 0.0
2016-Nov-29 09:24N 48°25' W 123°23'0 0.0
2016-Nov-29 07:33N 48°25' W 123°23'0 0.0
2016-Nov-29 05:09N 48°25' W 123°23'0 0.0
2016-Nov-29 04:09N 48°25' W 123°23'0 0.0
2016-Nov-29 03:21N 48°25' W 123°23'0 0.0
2016-Nov-28 23:27N 48°25' W 123°23'0 0.0
2016-Nov-28 22:33N 48°25' W 123°23'0 0.0
2016-Nov-28 21:33N 48°25' W 123°23'0 0.0
2016-Nov-28 20:27N 48°25' W 123°23'0 0.0
2016-Nov-28 18:09N 48°25' W 123°23'0 0.0
2016-Nov-28 17:21N 48°25' W 123°23'0 0.0
2016-Nov-28 15:26N 48°25' W 123°23'0 0.0
2016-Nov-28 12:20N 48°25' W 123°23'0 0.0
2016-Nov-28 09:32N 48°25' W 123°23'0 0.0
2016-Nov-28 08:32N 48°25' W 123°23'0 0.0
2016-Nov-28 05:17N 48°25' W 123°23'0 0.0
2016-Nov-28 04:20N 48°25' W 123°23'0 0.0
2016-Nov-28 02:20N 48°25' W 123°23'0 0.0
2016-Nov-28 01:29N 48°25' W 123°23'0 0.0
2016-Nov-28 00:32N 48°25' W 123°23'0 0.0
2016-Nov-27 23:26N 48°25' W 123°23'0 0.0
2016-Nov-27 22:32N 48°25' W 123°23'0 0.0
2016-Nov-27 21:29N 48°25' W 123°23'0 0.0
2016-Nov-27 20:23N 48°25' W 123°23'0 0.0
2016-Nov-27 19:26N 48°25' W 123°23'0 0.0
2016-Nov-27 18:32N 48°25' W 123°23'0 0.0
2016-Nov-27 16:26N 48°25' W 123°23'0 0.0
2016-Nov-27 15:26N 48°25' W 123°23'0 0.0
2016-Nov-26 22:23N 48°25' W 123°23'0 0.0
2016-Nov-26 21:20N 48°25' W 123°23'0 0.0
2016-Nov-26 20:26N 48°25' W 123°23'0 0.0
2016-Nov-26 19:20N 48°25' W 123°23'0 0.0
2016-Nov-26 18:32N 48°25' W 123°23'0 0.0
2016-Nov-26 17:26N 48°25' W 123°23'0 0.0
2016-Nov-26 16:32N 48°25' W 123°23'0 0.0
2016-Nov-26 15:32N 48°25' W 123°23'0 0.0
2016-Nov-26 14:20N 48°25' W 123°23'0 0.0
2016-Nov-26 13:14N 48°25' W 123°23'0 0.0
2016-Nov-26 12:32N 48°25' W 123°23'  
Track history (hours):
 
Tides and Currents Weather Stations Pressure Air Temp Water Temp Dewpoint Dewpoint Depression Visibility Wind Speed Wind Dir Waves Ship Positions

Cable Innovator

Last reported at 2016-Dec-06 03:04 UTC. Time now 2016-Dec-06 12:13 UTC.
Position N 48°25' W 123°23'.

Length 145.5 m; beam 24 m; draft 8.3 m.

Type: Other ship. MMSI: 233933000.

Date/timePositionNaut miles runAvg speedWind from/ knotsBaromVisibWave heightAir tempDewpointWater temp
2016-Dec-06 03:04N 48°25' W 123°23'0 0.0
2016-Dec-06 02:28N 48°25' W 123°23'0 0.0
2016-Dec-06 01:04N 48°25' W 123°23'0 0.0
2016-Dec-06 00:28N 48°25' W 123°23'0 0.0
2016-Dec-05 23:31N 48°25' W 123°23'0 0.0
2016-Dec-05 22:28N 48°25' W 123°23'0 0.0
2016-Dec-05 21:10N 48°25' W 123°23'0 0.0
2016-Dec-05 17:16N 48°25' W 123°23'0 0.0
2016-Dec-05 14:22N 48°25' W 123°23'0 0.0
2016-Dec-05 13:10N 48°25' W 123°23'0 0.0
2016-Dec-05 12:22N 48°25' W 123°23'0 0.0
2016-Dec-05 11:28N 48°25' W 123°23'0 0.0
2016-Dec-05 10:28N 48°25' W 123°23'0 0.0
2016-Dec-05 07:31N 48°25' W 123°23'0 0.0
2016-Dec-04 02:27N 48°25' W 123°23'0 0.0
2016-Dec-04 01:30N 48°25' W 123°23'0 0.0
2016-Dec-03 07:21N 48°25' W 123°23'0 0.0
2016-Dec-03 06:33N 48°25' W 123°23'0 0.0
2016-Dec-03 05:09N 48°25' W 123°23'0 0.0
2016-Dec-02 23:24N 48°25' W 123°23'0 0.0
2016-Dec-02 22:33N 48°25' W 123°23'0 0.0
2016-Dec-02 21:15N 48°25' W 123°23'0 0.0
2016-Dec-02 19:14N 48°25' W 123°23'1 0.7
2016-Dec-02 18:33N 48°25' W 123°24'7 6.9
2016-Dec-02 17:33N 48°18' W 123°20'2 2.1
2016-Dec-02 16:33N 48°19' W 123°17'0 0.0
2016-Dec-02 13:12N 48°18' W 123°17'0 0.0
2016-Dec-02 12:29N 48°18' W 123°17'0 0.0
2016-Dec-02 11:32N 48°18' W 123°17'0 0.0
2016-Dec-02 10:33N 48°18' W 123°17'0 0.0
2016-Dec-02 09:33N 48°18' W 123°17'0 0.0
2016-Dec-02 08:33N 48°18' W 123°17'0 0.0
2016-Dec-02 07:33N 48°18' W 123°17'0 0.0
2016-Dec-02 06:33N 48°18' W 123°17'0 0.0
2016-Dec-02 05:33N 48°18' W 123°17'0 0.0
2016-Dec-02 04:33N 48°18' W 123°17'0 0.0
2016-Dec-02 03:33N 48°18' W 123°17'0 0.1
2016-Dec-02 02:33N 48°18' W 123°17'0 0.0
2016-Dec-02 01:33N 48°18' W 123°17'0 0.0
2016-Dec-02 00:27N 48°18' W 123°17'0 0.0
2016-Dec-01 23:33N 48°18' W 123°17'0 0.0
2016-Dec-01 22:33N 48°18' W 123°17'0 0.0
2016-Dec-01 21:33N 48°18' W 123°17'0 0.0
2016-Dec-01 20:33N 48°18' W 123°17'0 0.0
2016-Dec-01 19:32N 48°18' W 123°17'0 0.0
2016-Dec-01 18:32N 48°18' W 123°17'7 6.8
2016-Dec-01 17:33N 48°23' W 123°25'2 0.4
2016-Dec-01 11:04N 48°25' W 123°23'0 0.0
2016-Dec-01 10:28N 48°25' W 123°23'0 0.0
2016-Dec-01 09:16N 48°25' W 123°23'0 0.0
2016-Dec-01 07:16N 48°25' W 123°23'0 0.0
2016-Dec-01 06:28N 48°25' W 123°23'0 0.0
2016-Dec-01 05:28N 48°25' W 123°23'0 0.0
2016-Dec-01 04:16N 48°25' W 123°23'0 0.0
2016-Dec-01 03:22N 48°25' W 123°23'0 0.0
2016-Dec-01 02:28N 48°25' W 123°23'0 0.0
2016-Dec-01 01:28N 48°25' W 123°23'0 0.0
2016-Dec-01 00:22N 48°25' W 123°23'0 0.0
2016-Nov-30 23:28N 48°25' W 123°23'0 0.0
2016-Nov-30 22:28N 48°25' W 123°23'0 0.0
2016-Nov-30 21:22N 48°25' W 123°23'0 0.0
2016-Nov-30 17:21N 48°25' W 123°23'0 0.0
2016-Nov-30 14:30N 48°25' W 123°23'0 0.0
2016-Nov-30 13:24N 48°25' W 123°23'0 0.0
2016-Nov-30 12:24N 48°25' W 123°23'0 0.0
2016-Nov-30 11:27N 48°25' W 123°23'0 0.0
2016-Nov-30 10:18N 48°25' W 123°23'0 0.0
2016-Nov-30 05:21N 48°25' W 123°23'0 0.0
2016-Nov-30 04:24N 48°25' W 123°23'0 0.0
2016-Nov-30 03:24N 48°25' W 123°23'0 0.0
2016-Nov-30 02:27N 48°25' W 123°23'0 0.0
2016-Nov-30 01:18N 48°25' W 123°23'0 0.0
2016-Nov-30 00:33N 48°25' W 123°23'0 0.0
2016-Nov-29 23:33N 48°25' W 123°23'0 0.0
2016-Nov-29 22:30N 48°25' W 123°23'0 0.0
2016-Nov-29 21:33N 48°25' W 123°23'0 0.0
2016-Nov-29 20:33N 48°25' W 123°23'0 0.0
2016-Nov-29 19:33N 48°25' W 123°23'0 0.0
2016-Nov-29 18:33N 48°25' W 123°23'0 0.0
2016-Nov-29 17:30N 48°25' W 123°23'0 0.0
2016-Nov-29 16:30N 48°25' W 123°23'0 0.0
2016-Nov-29 15:33N 48°25' W 123°23'0 0.0
2016-Nov-29 14:33N 48°25' W 123°23'0 0.0
2016-Nov-29 13:15N 48°25' W 123°23'0 0.0
2016-Nov-29 12:33N 48°25' W 123°23'0 0.0
2016-Nov-29 11:27N 48°25' W 123°23'0 0.0
2016-Nov-29 10:27N 48°25' W 123°23'0 0.0
2016-Nov-29 09:24N 48°25' W 123°23'0 0.0
2016-Nov-29 07:33N 48°25' W 123°23'0 0.0
2016-Nov-29 05:09N 48°25' W 123°23'0 0.0
2016-Nov-29 04:09N 48°25' W 123°23'0 0.0
2016-Nov-29 03:21N 48°25' W 123°23'0 0.0
2016-Nov-28 23:27N 48°25' W 123°23'0 0.0
2016-Nov-28 22:33N 48°25' W 123°23'0 0.0
2016-Nov-28 21:33N 48°25' W 123°23'0 0.0
2016-Nov-28 20:27N 48°25' W 123°23'0 0.0
2016-Nov-28 18:09N 48°25' W 123°23'0 0.0
2016-Nov-28 17:21N 48°25' W 123°23'0 0.0
2016-Nov-28 15:26N 48°25' W 123°23'0 0.0
2016-Nov-28 12:20N 48°25' W 123°23'0 0.0
2016-Nov-28 09:32N 48°25' W 123°23'0 0.0
2016-Nov-28 08:32N 48°25' W 123°23'0 0.0
2016-Nov-28 05:17N 48°25' W 123°23'0 0.0
2016-Nov-28 04:20N 48°25' W 123°23'0 0.0
2016-Nov-28 02:20N 48°25' W 123°23'0 0.0
2016-Nov-28 01:29N 48°25' W 123°23'0 0.0
2016-Nov-28 00:32N 48°25' W 123°23'0 0.0
2016-Nov-27 23:26N 48°25' W 123°23'0 0.0
2016-Nov-27 22:32N 48°25' W 123°23'0 0.0
2016-Nov-27 21:29N 48°25' W 123°23'0 0.0
2016-Nov-27 20:23N 48°25' W 123°23'0 0.0
2016-Nov-27 19:26N 48°25' W 123°23'0 0.0
2016-Nov-27 18:32N 48°25' W 123°23'0 0.0
2016-Nov-27 16:26N 48°25' W 123°23'0 0.0
2016-Nov-27 15:26N 48°25' W 123°23'0 0.0
2016-Nov-26 22:23N 48°25' W 123°23'0 0.0
2016-Nov-26 21:20N 48°25' W 123°23'0 0.0
2016-Nov-26 20:26N 48°25' W 123°23'0 0.0
2016-Nov-26 19:20N 48°25' W 123°23'0 0.0
2016-Nov-26 18:32N 48°25' W 123°23'0 0.0
2016-Nov-26 17:26N 48°25' W 123°23'0 0.0
2016-Nov-26 16:32N 48°25' W 123°23'0 0.0
2016-Nov-26 15:32N 48°25' W 123°23'0 0.0
2016-Nov-26 14:20N 48°25' W 123°23'0 0.0
2016-Nov-26 13:14N 48°25' W 123°23'0 0.0
2016-Nov-26 12:32N 48°25' W 123°23'  

Dump ship's entire track history